Time;durP1;ratioP1;P1;durP2;ratioP2;P2;SDS_P1;SDS_P2;PMS_P1;PMS_P2;Temp;Humidity;BMP_temperature;BMP_pressure;BME280_temperature;BME280_humidity;BME280_pressure;Samples;Min_cycle;Max_cycle;Signal;HPM_P1;HPM_P2
2021/06/24 00:01:23;;;;;;;7.43;6.70;;;;;;;;;;5028355;28;20045;-74
2021/06/24 00:03:49;;;;;;;9.40;8.32;;;;;;;;;;5029044;28;20050;-74
2021/06/24 00:06:14;;;;;;;15.82;12.45;;;;;;;;;;5030624;28;20037;-73
2021/06/24 00:08:39;;;;;;;8.50;7.65;;;;;;;;;;5029319;28;20100;-72
2021/06/24 00:11:05;;;;;;;16.67;11.90;;;;;;;;;;5031930;28;20018;-73
2021/06/24 00:13:31;;;;;;;9.30;8.50;;;;;;;;;;5029103;28;20037;-72
2021/06/24 00:15:56;;;;;;;8.48;7.22;;;;;;;;;;5029554;28;20087;-73
2021/06/24 00:18:21;;;;;;;8.35;7.53;;;;;;;;;;5029479;28;20056;-73
2021/06/24 00:20:47;;;;;;;10.63;9.13;;;;;;;;;;5027825;28;20109;-72
2021/06/24 00:23:13;;;;;;;14.80;9.90;;;;;;;;;;5030934;28;20024;-72
2021/06/24 00:25:39;;;;;;;13.63;10.45;;;;;;;;;;5028852;28;20572;-72
2021/06/24 00:28:05;;;;;;;9.70;8.70;;;;;;;;;;5028034;28;20045;-72
2021/06/24 00:30:30;;;;;;;20.75;13.18;;;;;;;;;;5027209;28;20049;-72
2021/06/24 00:32:55;;;;;;;16.17;8.68;;;;;;;;;;5028675;28;20506;-73
2021/06/24 00:35:20;;;;;;;12.68;10.45;;;;;;;;;;5029835;28;20028;-72
2021/06/24 00:37:46;;;;;;;14.43;8.68;;;;;;;;;;5038097;28;20033;-72
2021/06/24 00:40:12;;;;;;;14.68;9.85;;;;;;;;;;5029093;28;20080;-72
2021/06/24 00:42:38;;;;;;;14.52;10.63;;;;;;;;;;5028404;28;20464;-71
2021/06/24 00:45:05;;;;;;;16.10;11.27;;;;;;;;;;5028703;28;20047;-71
2021/06/24 00:47:30;;;;;;;13.70;10.27;;;;;;;;;;5027552;28;20037;-72
2021/06/24 00:49:55;;;;;;;26.88;14.27;;;;;;;;;;5031008;28;20071;-74
2021/06/24 00:52:21;;;;;;;15.20;10.57;;;;;;;;;;5028412;28;20033;-71
2021/06/24 00:54:46;;;;;;;13.00;10.43;;;;;;;;;;5028800;28;20562;-71
2021/06/24 00:57:11;;;;;;;17.50;8.88;;;;;;;;;;5028654;28;20025;-71
2021/06/24 00:59:37;;;;;;;15.75;9.75;;;;;;;;;;5028336;28;20045;-71
2021/06/24 01:02:04;;;;;;;9.98;8.98;;;;;;;;;;5030898;28;20027;-72
2021/06/24 01:04:30;;;;;;;17.05;11.70;;;;;;;;;;5027778;28;20045;-72
2021/06/24 01:06:55;;;;;;;12.77;10.05;;;;;;;;;;5029796;28;20033;-71
2021/06/24 01:09:20;;;;;;;8.68;7.78;;;;;;;;;;5028463;28;20033;-72
2021/06/24 01:11:46;;;;;;;11.50;9.10;;;;;;;;;;5028384;28;20074;-71
2021/06/24 01:14:11;;;;;;;13.52;9.75;;;;;;;;;;5030157;28;20057;-72
2021/06/24 01:16:37;;;;;;;10.75;8.95;;;;;;;;;;5028519;28;20021;-72
2021/06/24 01:19:03;;;;;;;12.48;8.93;;;;;;;;;;5028549;28;20100;-71
2021/06/24 01:21:28;;;;;;;11.68;8.60;;;;;;;;;;5029104;28;20511;-71
2021/06/24 01:23:53;;;;;;;7.32;6.60;;;;;;;;;;5026693;28;20141;-71
2021/06/24 01:26:19;;;;;;;13.95;7.57;;;;;;;;;;5029100;28;20391;-72
2021/06/24 01:28:44;;;;;;;10.40;7.10;;;;;;;;;;5028257;28;20038;-71
2021/06/24 01:31:09;;;;;;;8.32;6.53;;;;;;;;;;5028231;28;20056;-71
2021/06/24 01:33:35;;;;;;;7.80;6.07;;;;;;;;;;5026489;28;20073;-71
2021/06/24 01:36:01;;;;;;;12.02;7.15;;;;;;;;;;5028438;28;20037;-71
2021/06/24 01:38:26;;;;;;;10.85;7.45;;;;;;;;;;5033696;28;20089;-71
2021/06/24 01:40:52;;;;;;;11.60;8.02;;;;;;;;;;5067059;28;20017;-70
2021/06/24 01:43:17;;;;;;;10.05;6.00;;;;;;;;;;5051951;28;20502;-71
2021/06/24 01:45:44;;;;;;;7.35;6.53;;;;;;;;;;5052211;28;20398;-71
2021/06/24 01:48:09;;;;;;;7.63;5.82;;;;;;;;;;5052163;28;20379;-71
2021/06/24 01:50:34;;;;;;;10.82;7.82;;;;;;;;;;5052431;28;20029;-71
2021/06/24 01:53:00;;;;;;;10.60;8.50;;;;;;;;;;5053562;28;20025;-71
2021/06/24 01:55:35;;;;;;;10.13;7.07;;;;;;;;;;5052137;28;20517;-71
2021/06/24 01:58:01;;;;;;;13.23;8.43;;;;;;;;;;5052704;28;20043;-71
2021/06/24 02:00:26;;;;;;;11.98;6.18;;;;;;;;;;5051414;28;20112;-72
2021/06/24 02:02:52;;;;;;;8.48;6.18;;;;;;;;;;5052041;28;20067;-70
2021/06/24 02:05:17;;;;;;;6.88;6.28;;;;;;;;;;5054094;28;20471;-70
2021/06/24 02:07:42;;;;;;;9.90;7.55;;;;;;;;;;5042294;28;20477;-70
2021/06/24 02:10:09;;;;;;;11.65;8.43;;;;;;;;;;5031665;28;20479;-70
2021/06/24 02:12:35;;;;;;;10.70;8.05;;;;;;;;;;5030929;28;20037;-70
2021/06/24 02:15:01;;;;;;;8.65;7.50;;;;;;;;;;5030798;28;20372;-71
2021/06/24 02:17:26;;;;;;;6.47;5.68;;;;;;;;;;5031307;28;20026;-70
2021/06/24 02:19:51;;;;;;;10.00;6.35;;;;;;;;;;5033841;28;20039;-71
2021/06/24 02:22:16;;;;;;;4.75;4.30;;;;;;;;;;5036573;28;20112;-70
2021/06/24 02:24:42;;;;;;;8.88;5.68;;;;;;;;;;5031364;28;20136;-70
2021/06/24 02:27:07;;;;;;;6.03;5.38;;;;;;;;;;5031521;28;20411;-70
2021/06/24 02:29:32;;;;;;;8.52;5.95;;;;;;;;;;5031831;28;20019;-70
2021/06/24 02:31:57;;;;;;;5.88;5.03;;;;;;;;;;5033676;28;20105;-70
2021/06/24 02:34:24;;;;;;;9.57;5.30;;;;;;;;;;5031051;28;20553;-71
2021/06/24 02:36:49;;;;;;;7.00;6.30;;;;;;;;;;5034135;28;20030;-69
2021/06/24 02:39:15;;;;;;;8.35;6.88;;;;;;;;;;5041383;28;20040;-72
2021/06/24 02:41:40;;;;;;;11.63;7.72;;;;;;;;;;5051346;28;20012;-71
2021/06/24 02:44:05;;;;;;;10.77;8.73;;;;;;;;;;5068281;28;20021;-71
2021/06/24 02:46:30;;;;;;;6.50;5.90;;;;;;;;;;5049825;28;20124;-71
2021/06/24 02:48:56;;;;;;;6.10;5.43;;;;;;;;;;5066395;28;20033;-71
2021/06/24 02:51:21;;;;;;;7.25;5.97;;;;;;;;;;5050770;28;20045;-72
2021/06/24 02:53:46;;;;;;;5.22;4.72;;;;;;;;;;5031454;28;20034;-72
2021/06/24 02:56:11;;;;;;;6.88;4.70;;;;;;;;;;5031991;28;20028;-72
2021/06/24 02:58:37;;;;;;;6.20;5.47;;;;;;;;;;5030882;28;20046;-71
2021/06/24 03:01:03;;;;;;;5.95;5.35;;;;;;;;;;5030900;28;20511;-72
2021/06/24 03:03:28;;;;;;;7.20;5.55;;;;;;;;;;5029113;28;20042;-72
2021/06/24 03:05:53;;;;;;;6.25;5.22;;;;;;;;;;5029617;28;20041;-71
2021/06/24 03:08:18;;;;;;;5.97;4.78;;;;;;;;;;5042718;28;20028;-72
2021/06/24 03:10:44;;;;;;;6.63;6.03;;;;;;;;;;5034023;28;20063;-72
2021/06/24 03:13:09;;;;;;;6.30;5.53;;;;;;;;;;5030254;28;20407;-72
2021/06/24 03:15:37;;;;;;;5.35;4.85;;;;;;;;;;5029482;28;20124;-71
2021/06/24 03:18:02;;;;;;;4.50;4.10;;;;;;;;;;5030760;28;20030;-72
2021/06/24 03:20:28;;;;;;;5.43;4.93;;;;;;;;;;5030460;28;20021;-70
2021/06/24 03:22:57;;;;;;;7.75;5.47;;;;;;;;;;5044974;28;20013;-72
2021/06/24 03:25:22;;;;;;;8.18;5.70;;;;;;;;;;5028699;28;20081;-72
2021/06/24 03:27:50;;;;;;;6.28;5.13;;;;;;;;;;5030343;28;20053;-71
2021/06/24 03:30:15;;;;;;;6.50;5.80;;;;;;;;;;5029177;28;20495;-73
2021/06/24 03:32:40;;;;;;;8.15;5.82;;;;;;;;;;5028729;28;20064;-71
2021/06/24 03:35:06;;;;;;;6.55;5.30;;;;;;;;;;5032273;28;20101;-71
2021/06/24 03:37:31;;;;;;;5.63;5.03;;;;;;;;;;5034040;28;20037;-72
2021/06/24 03:39:56;;;;;;;5.78;4.05;;;;;;;;;;5038128;28;20049;-72
2021/06/24 03:42:22;;;;;;;6.55;5.05;;;;;;;;;;5029646;28;20132;-73
2021/06/24 03:44:47;;;;;;;6.82;5.72;;;;;;;;;;5028739;28;20450;-72
2021/06/24 03:47:12;;;;;;;5.00;4.60;;;;;;;;;;5032113;28;20032;-72
2021/06/24 03:49:37;;;;;;;22.90;6.43;;;;;;;;;;5028597;28;20056;-71
2021/06/24 03:52:03;;;;;;;6.28;5.40;;;;;;;;;;5033385;28;20037;-73
2021/06/24 03:54:28;;;;;;;5.93;5.43;;;;;;;;;;5029106;28;20033;-72
2021/06/24 03:56:53;;;;;;;6.80;6.10;;;;;;;;;;5030102;28;20033;-72
2021/06/24 03:59:18;;;;;;;5.70;3.80;;;;;;;;;;5030805;28;20087;-72
2021/06/24 04:01:44;;;;;;;10.07;5.97;;;;;;;;;;5029810;28;20504;-72
2021/06/24 04:04:12;;;;;;;7.68;6.07;;;;;;;;;;5026699;28;20045;-72
2021/06/24 04:06:37;;;;;;;64.32;16.55;;;;;;;;;;5031718;28;20037;-72
2021/06/24 04:09:03;;;;;;;129.18;23.60;;;;;;;;;;5030123;28;20116;-73
2021/06/24 04:11:29;;;;;;;38.45;7.85;;;;;;;;;;5028297;28;20106;-73
2021/06/24 04:13:54;;;;;;;47.17;10.90;;;;;;;;;;5029954;28;20021;-73
2021/06/24 04:16:19;;;;;;;14.88;9.73;;;;;;;;;;5028094;28;20029;-74
2021/06/24 04:18:44;;;;;;;5.95;5.32;;;;;;;;;;5028152;28;20057;-73
2021/06/24 04:21:09;;;;;;;2.72;2.53;;;;;;;;;;5029315;28;20029;-75
2021/06/24 04:23:35;;;;;;;4.80;4.22;;;;;;;;;;5030923;28;20025;-73
2021/06/24 04:26:00;;;;;;;2.63;2.42;;;;;;;;;;5030083;28;20037;-74
2021/06/24 04:28:25;;;;;;;2.53;1.85;;;;;;;;;;5027765;28;20036;-73
2021/06/24 04:30:51;;;;;;;3.83;2.00;;;;;;;;;;5028129;28;20068;-73
2021/06/24 04:33:16;;;;;;;1.77;1.65;;;;;;;;;;5028693;28;20209;-73
2021/06/24 04:35:42;;;;;;;2.17;1.43;;;;;;;;;;5027790;28;20033;-74
2021/06/24 04:38:07;;;;;;;1.80;1.50;;;;;;;;;;5033043;28;20276;-73
2021/06/24 04:40:32;;;;;;;3.35;1.90;;;;;;;;;;5028637;28;20033;-74
2021/06/24 04:42:57;;;;;;;5.90;1.30;;;;;;;;;;5027315;28;20116;-74
2021/06/24 04:45:23;;;;;;;3.28;1.48;;;;;;;;;;5027639;28;20049;-74
2021/06/24 04:47:49;;;;;;;2.95;1.17;;;;;;;;;;5027692;28;20036;-74
2021/06/24 04:50:15;;;;;;;7.60;1.25;;;;;;;;;;5031029;28;20467;-75
2021/06/24 04:52:40;;;;;;;1.52;0.88;;;;;;;;;;5028515;28;20049;-74
2021/06/24 04:55:05;;;;;;;1.85;0.90;;;;;;;;;;5026919;28;20122;-71
2021/06/24 04:57:31;;;;;;;3.05;1.10;;;;;;;;;;5027458;28;20045;-71
2021/06/24 04:59:56;;;;;;;4.10;1.40;;;;;;;;;;5028391;28;20041;-71
2021/06/24 05:02:21;;;;;;;1.60;0.82;;;;;;;;;;5030543;28;20268;-73
2021/06/24 05:04:46;;;;;;;1.27;0.85;;;;;;;;;;5027374;28;20056;-74
2021/06/24 05:07:12;;;;;;;2.53;0.90;;;;;;;;;;5032971;28;20120;-74
2021/06/24 05:09:41;;;;;;;1.30;0.80;;;;;;;;;;5031766;28;20059;-75
2021/06/24 05:12:07;;;;;;;0.98;0.88;;;;;;;;;;5027294;28;20049;-71
2021/06/24 05:14:33;;;;;;;0.88;0.85;;;;;;;;;;5027233;28;20024;-71
2021/06/24 05:16:58;;;;;;;0.93;0.93;;;;;;;;;;5030308;28;20100;-71
2021/06/24 05:19:23;;;;;;;1.27;1.08;;;;;;;;;;5028443;28;20043;-69
2021/06/24 05:21:48;;;;;;;1.42;0.90;;;;;;;;;;5026048;28;20076;-71
2021/06/24 05:24:14;;;;;;;1.30;0.90;;;;;;;;;;5031515;28;20041;-68
2021/06/24 05:26:40;;;;;;;1.08;0.90;;;;;;;;;;5048146;28;20045;-71
2021/06/24 05:29:05;;;;;;;1.67;1.33;;;;;;;;;;5050156;28;20417;-72
2021/06/24 05:31:31;;;;;;;4.60;0.90;;;;;;;;;;5046724;28;20029;-73
2021/06/24 05:33:57;;;;;;;1.83;1.70;;;;;;;;;;5047746;28;20041;-71
2021/06/24 05:36:22;;;;;;;14.90;13.40;;;;;;;;;;5047678;28;20124;-68
2021/06/24 05:38:47;;;;;;;3.63;3.08;;;;;;;;;;5046626;28;20041;-77
2021/06/24 05:41:13;;;;;;;1.17;0.93;;;;;;;;;;5042402;28;20021;-69
2021/06/24 05:43:39;;;;;;;2.33;1.00;;;;;;;;;;5047284;28;20041;-71
2021/06/24 05:46:04;;;;;;;1.77;0.82;;;;;;;;;;5046021;28;20763;-72
2021/06/24 05:48:32;;;;;;;3.70;1.48;;;;;;;;;;5048305;28;20111;-76
2021/06/24 05:50:57;;;;;;;2.45;1.48;;;;;;;;;;5047078;28;20120;-67
2021/06/24 05:53:23;;;;;;;1.45;0.80;;;;;;;;;;5043644;28;20017;-68
2021/06/24 05:55:51;;;;;;;0.80;0.80;;;;;;;;;;5026017;28;20041;-67
2021/06/24 05:58:18;;;;;;;2.90;1.08;;;;;;;;;;5026786;28;20033;-68
2021/06/24 06:00:44;;;;;;;3.05;1.27;;;;;;;;;;5022243;28;20171;-67
2021/06/24 06:03:10;;;;;;;1.13;1.02;;;;;;;;;;5025829;28;20612;-68
2021/06/24 06:05:35;;;;;;;1.33;1.23;;;;;;;;;;5027377;28;20034;-68
2021/06/24 06:08:04;;;;;;;0.98;0.70;;;;;;;;;;5035005;28;20009;-67
2021/06/24 06:10:30;;;;;;;1.15;0.73;;;;;;;;;;5035770;28;20048;-67
2021/06/24 06:12:55;;;;;;;0.68;0.68;;;;;;;;;;5027010;28;20116;-67
2021/06/24 06:15:21;;;;;;;1.05;0.77;;;;;;;;;;5027431;28;20051;-67
2021/06/24 06:17:46;;;;;;;0.40;0.40;;;;;;;;;;5026389;28;20061;-67
2021/06/24 06:20:12;;;;;;;1.25;0.70;;;;;;;;;;5029544;28;20112;-61
2021/06/24 06:22:37;;;;;;;1.25;0.90;;;;;;;;;;5028834;28;20061;-61
2021/06/24 06:25:02;;;;;;;2.13;0.90;;;;;;;;;;5028055;28;20386;-62
2021/06/24 06:27:28;;;;;;;0.75;0.75;;;;;;;;;;5027917;28;20459;-62
2021/06/24 06:29:54;;;;;;;0.80;0.80;;;;;;;;;;5030673;28;20036;-62
2021/06/24 06:32:19;;;;;;;0.80;0.80;;;;;;;;;;5032659;28;20036;-61
2021/06/24 06:34:44;;;;;;;1.40;0.77;;;;;;;;;;5030860;28;20036;-62
2021/06/24 06:37:09;;;;;;;1.88;1.10;;;;;;;;;;5031168;28;20061;-62
2021/06/24 06:39:35;;;;;;;1.13;0.90;;;;;;;;;;5043317;28;20044;-60
2021/06/24 06:42:00;;;;;;;0.82;0.80;;;;;;;;;;5048720;28;20123;-61
2021/06/24 06:44:25;;;;;;;3.55;1.92;;;;;;;;;;5052523;28;20024;-67
2021/06/24 06:46:51;;;;;;;2.17;1.20;;;;;;;;;;5049863;28;20559;-73
2021/06/24 06:49:17;;;;;;;1.80;1.17;;;;;;;;;;5051222;28;20044;-74
2021/06/24 06:51:42;;;;;;;1.55;1.40;;;;;;;;;;5051416;28;20044;-69
2021/06/24 06:54:07;;;;;;;1.60;1.50;;;;;;;;;;5036773;28;20039;-72
2021/06/24 06:56:33;;;;;;;3.28;1.80;;;;;;;;;;5029825;28;20256;-76
2021/06/24 06:58:59;;;;;;;2.13;1.60;;;;;;;;;;5031982;28;20579;-74
2021/06/24 07:01:24;;;;;;;1.92;1.75;;;;;;;;;;5030793;28;20044;-75
2021/06/24 07:03:50;;;;;;;1.90;1.50;;;;;;;;;;5028888;28;20029;-66
2021/06/24 07:06:15;;;;;;;3.20;1.75;;;;;;;;;;5030731;28;20450;-65
2021/06/24 07:08:40;;;;;;;2.80;2.50;;;;;;;;;;5033527;28;20456;-66
2021/06/24 07:11:06;;;;;;;2.42;1.70;;;;;;;;;;5032457;28;20021;-63
2021/06/24 07:13:38;;;;;;;1.83;1.70;;;;;;;;;;5030545;28;20021;-79
2021/06/24 07:16:03;;;;;;;3.53;1.80;;;;;;;;;;5029620;28;20105;-75
2021/06/24 07:18:28;;;;;;;3.20;1.63;;;;;;;;;;5029238;28;20503;-75
2021/06/24 07:20:54;;;;;;;1.85;1.33;;;;;;;;;;5027640;28;20045;-81
2021/06/24 07:23:19;;;;;;;1.50;1.40;;;;;;;;;;5035348;28;20037;-74
2021/06/24 07:25:45;;;;;;;2.00;1.90;;;;;;;;;;5030172;28;20135;-68
2021/06/24 07:28:10;;;;;;;2.85;1.70;;;;;;;;;;5029380;28;20126;-69
2021/06/24 07:30:35;;;;;;;2.35;1.60;;;;;;;;;;5030731;28;20040;-78
2021/06/24 07:33:01;;;;;;;1.63;1.42;;;;;;;;;;5029855;28;20099;-75
2021/06/24 07:35:26;;;;;;;2.67;1.77;;;;;;;;;;5032675;28;20558;-70
2021/06/24 07:37:51;;;;;;;1.45;1.33;;;;;;;;;;5032189;28;20804;-69
2021/06/24 07:40:17;;;;;;;0.95;0.95;;;;;;;;;;5026172;28;20030;-70
2021/06/24 07:42:42;;;;;;;2.28;1.27;;;;;;;;;;5029583;28;20083;-64
2021/06/24 07:45:08;;;;;;;1.27;1.15;;;;;;;;;;5029947;28;20034;-62
2021/06/24 07:47:33;;;;;;;2.72;1.50;;;;;;;;;;5029797;28;20017;-65
2021/06/24 07:49:58;;;;;;;2.92;1.73;;;;;;;;;;5031800;28;20092;-66
2021/06/24 07:52:24;;;;;;;1.30;1.20;;;;;;;;;;5029379;28;20207;-65
2021/06/24 07:54:49;;;;;;;1.15;1.13;;;;;;;;;;5030487;28;20301;-65
2021/06/24 07:57:14;;;;;;;1.23;0.90;;;;;;;;;;5029934;28;20051;-69
2021/06/24 07:59:40;;;;;;;1.20;1.10;;;;;;;;;;5028707;28;20433;-67
2021/06/24 08:02:05;;;;;;;1.00;1.00;;;;;;;;;;5030584;28;20049;-67
2021/06/24 08:04:31;;;;;;;1.17;1.17;;;;;;;;;;5029578;28;20037;-68
2021/06/24 08:06:57;;;;;;;1.23;1.02;;;;;;;;;;5029569;28;20038;-66
2021/06/24 08:09:22;;;;;;;2.65;0.98;;;;;;;;;;5029743;28;20041;-67
2021/06/24 08:11:47;;;;;;;2.60;1.48;;;;;;;;;;5046133;28;20078;-67
2021/06/24 08:14:13;;;;;;;2.10;1.55;;;;;;;;;;5051013;28;20023;-69
2021/06/24 08:16:38;;;;;;;1.88;1.05;;;;;;;;;;5064864;28;20090;-68
2021/06/24 08:19:04;;;;;;;1.20;1.10;;;;;;;;;;5048397;28;20029;-67
2021/06/24 08:21:29;;;;;;;1.98;1.30;;;;;;;;;;5049486;28;20033;-67
2021/06/24 08:23:55;;;;;;;1.20;1.10;;;;;;;;;;5040012;28;20080;-68
2021/06/24 08:26:20;;;;;;;1.35;0.90;;;;;;;;;;5036739;28;20040;-67
2021/06/24 08:28:46;;;;;;;1.35;1.27;;;;;;;;;;5028683;28;20061;-67
2021/06/24 08:31:11;;;;;;;1.13;1.10;;;;;;;;;;5029077;28;20029;-68
2021/06/24 08:33:36;;;;;;;2.05;1.42;;;;;;;;;;5028302;28;20510;-68
2021/06/24 08:36:03;;;;;;;1.25;1.15;;;;;;;;;;5027145;28;20056;-68
2021/06/24 08:38:28;;;;;;;1.23;1.20;;;;;;;;;;5033578;28;20029;-69
2021/06/24 08:40:56;;;;;;;1.48;1.38;;;;;;;;;;5033277;28;20017;-69
2021/06/24 08:43:22;;;;;;;1.13;1.00;;;;;;;;;;5028494;28;20049;-69
2021/06/24 08:45:47;;;;;;;2.28;1.30;;;;;;;;;;5029101;28;20052;-69
2021/06/24 08:48:13;;;;;;;1.85;1.30;;;;;;;;;;5028792;28;20036;-70
2021/06/24 08:50:46;;;;;;;1.85;1.75;;;;;;;;;;5028271;28;20014;-68
2021/06/24 08:53:11;;;;;;;1.67;0.95;;;;;;;;;;5032964;28;20032;-68
2021/06/24 08:55:40;;;;;;;1.30;1.20;;;;;;;;;;5055239;28;20033;-68
2021/06/24 08:58:06;;;;;;;1.30;1.20;;;;;;;;;;5029362;28;20042;-67
2021/06/24 09:00:32;;;;;;;1.25;1.15;;;;;;;;;;5028681;28;20033;-67
2021/06/24 09:03:12;;;;;;;1.65;0.88;;;;;;;;;;5028015;28;20033;-68
2021/06/24 09:05:51;;;;;;;2.58;1.23;;;;;;;;;;5027389;28;20386;-67
2021/06/24 09:08:23;;;;;;;1.73;1.48;;;;;;;;;;5032461;28;20021;-67
2021/06/24 09:11:07;;;;;;;1.60;1.20;;;;;;;;;;5039145;28;20099;-68
2021/06/24 09:13:33;;;;;;;1.70;1.27;;;;;;;;;;5028073;28;20049;-68
2021/06/24 09:16:03;;;;;;;1.70;1.20;;;;;;;;;;5028192;28;20030;-68
2021/06/24 09:18:29;;;;;;;1.42;0.82;;;;;;;;;;5028469;28;20119;-67
2021/06/24 09:20:54;;;;;;;1.52;1.40;;;;;;;;;;5026896;28;20240;-67
2021/06/24 09:23:23;;;;;;;1.53;1.20;;;;;;;;;;5032698;28;20556;-68
2021/06/24 09:26:04;;;;;;;1.25;1.15;;;;;;;;;;5030509;28;20296;-68
2021/06/24 09:28:36;;;;;;;2.10;1.30;;;;;;;;;;5028574;28;20032;-71
2021/06/24 09:31:01;;;;;;;1.50;1.40;;;;;;;;;;5028208;28;20037;-70
2021/06/24 09:33:37;;;;;;;1.30;1.20;;;;;;;;;;5025215;28;20113;-70
2021/06/24 09:36:02;;;;;;;1.80;1.52;;;;;;;;;;5027815;28;20340;-72
2021/06/24 09:38:27;;;;;;;1.38;1.27;;;;;;;;;;5029165;28;20041;-70
2021/06/24 09:40:54;;;;;;;1.17;1.07;;;;;;;;;;5036152;28;20049;-73
2021/06/24 09:43:22;;;;;;;1.20;1.20;;;;;;;;;;5026660;28;20344;-73
2021/06/24 09:46:08;;;;;;;1.67;1.40;;;;;;;;;;5027206;28;20044;-73
2021/06/24 09:48:34;;;;;;;3.00;1.60;;;;;;;;;;5026783;28;20037;-73
2021/06/24 09:51:25;;;;;;;2.88;1.50;;;;;;;;;;5027963;28;20030;-72
2021/06/24 09:53:58;;;;;;;1.30;1.20;;;;;;;;;;5029954;28;20033;-73
2021/06/24 09:56:31;;;;;;;1.30;1.20;;;;;;;;;;5029978;28;20029;-72
2021/06/24 09:58:57;;;;;;;1.80;1.70;;;;;;;;;;5043599;28;20049;-72
2021/06/24 10:01:29;;;;;;;1.60;1.50;;;;;;;;;;5026926;28;20076;-72
2021/06/24 10:03:55;;;;;;;2.65;1.70;;;;;;;;;;5029076;28;20029;-71
2021/06/24 10:06:24;;;;;;;1.95;1.85;;;;;;;;;;5029354;28;20143;-75
2021/06/24 10:08:50;;;;;;;2.60;1.65;;;;;;;;;;5031894;28;20065;-68
2021/06/24 10:11:15;;;;;;;2.15;1.85;;;;;;;;;;5036982;28;20055;-75
2021/06/24 10:13:46;;;;;;;1.77;1.58;;;;;;;;;;5050416;28;20033;-82
2021/06/24 10:16:11;;;;;;;1.83;1.73;;;;;;;;;;5049864;28;20033;-77
2021/06/24 10:18:37;;;;;;;3.13;1.50;;;;;;;;;;5050939;28;20387;-78
2021/06/24 10:21:02;;;;;;;3.08;1.30;;;;;;;;;;5050872;28;20095;-76
2021/06/24 10:23:28;;;;;;;4.32;1.30;;;;;;;;;;5053543;28;20052;-72
2021/06/24 10:25:53;;;;;;;2.50;1.77;;;;;;;;;;5041582;28;20099;-72
2021/06/24 10:28:19;;;;;;;1.52;1.40;;;;;;;;;;5049280;28;20036;-71
2021/06/24 10:30:44;;;;;;;1.70;1.40;;;;;;;;;;5051348;28;20032;-65
2021/06/24 10:33:15;;;;;;;2.58;1.60;;;;;;;;;;5049758;28;20036;-71
2021/06/24 10:35:44;;;;;;;3.75;1.60;;;;;;;;;;5049073;28;20032;-68
2021/06/24 10:38:10;;;;;;;3.25;1.40;;;;;;;;;;5051892;28;20090;-71
2021/06/24 10:40:43;;;;;;;2.22;1.58;;;;;;;;;;5043529;28;20030;-71
2021/06/24 10:43:08;;;;;;;1.60;1.50;;;;;;;;;;5050393;28;20033;-75
2021/06/24 10:45:34;;;;;;;1.92;1.70;;;;;;;;;;5049956;28;20033;-72
2021/06/24 10:48:19;;;;;;;1.67;1.58;;;;;;;;;;5047182;28;20671;-73
2021/06/24 10:50:44;;;;;;;1.90;1.80;;;;;;;;;;5048401;28;20017;-74
2021/06/24 10:53:10;;;;;;;2.97;1.83;;;;;;;;;;5050417;28;20020;-75
2021/06/24 10:55:37;;;;;;;2.17;1.50;;;;;;;;;;5040780;28;20042;-75
2021/06/24 10:58:27;;;;;;;2.30;1.35;;;;;;;;;;5047839;28;20032;-76
2021/06/24 11:01:01;;;;;;;3.63;1.33;;;;;;;;;;5048733;28;20529;-75
2021/06/24 11:03:47;;;;;;;2.33;1.40;;;;;;;;;;5047181;28;20033;-76
2021/06/24 11:06:16;;;;;;;2.13;1.40;;;;;;;;;;5047967;28;20403;-76
2021/06/24 11:08:43;;;;;;;1.90;1.30;;;;;;;;;;5049729;28;20016;-77
2021/06/24 11:11:08;;;;;;;1.52;1.42;;;;;;;;;;5032428;28;20024;-76
2021/06/24 11:16:05;;;;;;;1.63;1.52;;;;;;;;;;5031110;28;20045;-77
2021/06/24 11:18:31;;;;;;;1.70;1.40;;;;;;;;;;5029629;28;20041;-78
2021/06/24 11:21:03;;;;;;;2.07;1.97;;;;;;;;;;5029420;28;20193;-78
2021/06/24 11:23:59;;;;;;;2.40;1.70;;;;;;;;;;5031435;28;20841;-78
2021/06/24 11:26:24;;;;;;;2.22;2.10;;;;;;;;;;5034052;28;20038;-76
2021/06/24 11:28:57;;;;;;;2.27;1.90;;;;;;;;;;5029370;28;20099;-78
2021/06/24 11:31:39;;;;;;;2.15;1.90;;;;;;;;;;5030512;28;20634;-80
2021/06/24 11:34:26;;;;;;;2.55;1.63;;;;;;;;;;5029681;28;20021;-74
2021/06/24 11:36:56;;;;;;;1.40;1.30;;;;;;;;;;5030917;28;20041;-76
2021/06/24 11:39:26;;;;;;;1.40;1.30;;;;;;;;;;5029102;28;20061;-77
2021/06/24 11:41:56;;;;;;;1.90;1.52;;;;;;;;;;5038117;28;20116;-76
2021/06/24 11:44:28;;;;;;;1.38;1.27;;;;;;;;;;5051437;28;20053;-77
2021/06/24 11:46:56;;;;;;;1.70;1.60;;;;;;;;;;5049726;28;20048;-80
2021/06/24 11:49:34;;;;;;;2.08;1.48;;;;;;;;;;5051326;28;20483;-77
2021/06/24 12:00:39;;;;;;;2.53;1.55;;;;;;;;;;5040195;28;20094;-77
2021/06/24 12:03:08;;;;;;;2.45;2.35;;;;;;;;;;5041634;28;20085;-66
2021/06/24 12:05:37;;;;;;;2.15;1.95;;;;;;;;;;5049642;28;20079;-71
2021/06/24 12:08:03;;;;;;;3.60;2.50;;;;;;;;;;5051864;28;20047;-68
2021/06/24 12:10:28;;;;;;;3.60;1.98;;;;;;;;;;5043083;28;20116;-68
2021/06/24 12:12:53;;;;;;;2.70;2.50;;;;;;;;;;5027785;28;20042;-68
2021/06/24 12:15:19;;;;;;;2.67;2.47;;;;;;;;;;5029443;28;20034;-68
2021/06/24 12:17:44;;;;;;;3.33;2.70;;;;;;;;;;5026062;28;20836;-68
2021/06/24 12:20:12;;;;;;;2.00;1.80;;;;;;;;;;5028962;28;20268;-67
2021/06/24 12:22:40;;;;;;;2.45;2.30;;;;;;;;;;5028748;28;20438;-67
2021/06/24 12:25:34;;;;;;;2.00;1.90;;;;;;;;;;5034136;28;20045;-67
2021/06/24 12:28:01;;;;;;;2.92;2.67;;;;;;;;;;5027396;28;20130;-67
2021/06/24 12:30:27;;;;;;;2.00;1.90;;;;;;;;;;5029124;28;20040;-67
2021/06/24 12:32:54;;;;;;;2.28;2.00;;;;;;;;;;5028366;28;20030;-67
2021/06/24 12:35:23;;;;;;;2.13;2.03;;;;;;;;;;5030953;28;20024;-66
2021/06/24 12:37:50;;;;;;;2.40;2.20;;;;;;;;;;5028553;28;20041;-66
2021/06/24 12:40:16;;;;;;;1.92;1.83;;;;;;;;;;5038835;28;20120;-66
2021/06/24 12:42:42;;;;;;;2.33;2.13;;;;;;;;;;5031628;28;20064;-67
2021/06/24 12:45:08;;;;;;;2.42;2.20;;;;;;;;;;5028090;28;20487;-66
2021/06/24 12:47:34;;;;;;;1.70;1.60;;;;;;;;;;5027939;28;20112;-66
2021/06/24 12:50:08;;;;;;;2.40;2.20;;;;;;;;;;5030809;28;20611;-66
2021/06/24 12:52:33;;;;;;;2.03;1.90;;;;;;;;;;5028279;28;20033;-67
2021/06/24 12:54:59;;;;;;;2.03;1.93;;;;;;;;;;5034352;28;20060;-73
2021/06/24 12:57:24;;;;;;;3.47;1.70;;;;;;;;;;5028655;28;20264;-72
2021/06/24 12:59:49;;;;;;;2.28;2.08;;;;;;;;;;5026005;28;20017;-67
2021/06/24 13:02:15;;;;;;;2.60;2.40;;;;;;;;;;5030314;28;20025;-76
2021/06/24 13:04:40;;;;;;;4.67;2.07;;;;;;;;;;5028323;28;20384;-70
2021/06/24 13:07:06;;;;;;;3.20;2.20;;;;;;;;;;5028202;28;20534;-67
2021/06/24 13:09:41;;;;;;;1.98;1.77;;;;;;;;;;5031476;28;20041;-67
2021/06/24 13:12:08;;;;;;;2.20;2.00;;;;;;;;;;5036192;28;20514;-66
2021/06/24 13:14:41;;;;;;;2.30;2.10;;;;;;;;;;5028185;28;20024;-66
2021/06/24 13:17:14;;;;;;;2.53;2.33;;;;;;;;;;5030366;28;20021;-67
2021/06/24 13:19:41;;;;;;;2.85;2.50;;;;;;;;;;5027078;28;20135;-68
2021/06/24 13:22:09;;;;;;;2.40;2.30;;;;;;;;;;5027492;28;20029;-68
2021/06/24 13:24:36;;;;;;;2.47;2.28;;;;;;;;;;5031091;28;20029;-68
2021/06/24 13:27:04;;;;;;;2.28;2.15;;;;;;;;;;5028846;28;20069;-65
2021/06/24 13:29:30;;;;;;;2.40;1.90;;;;;;;;;;5028733;28;20115;-65
2021/06/24 13:31:55;;;;;;;1.73;1.60;;;;;;;;;;5028059;28;20085;-66
2021/06/24 13:34:22;;;;;;;2.00;1.80;;;;;;;;;;5027611;28;20034;-65
2021/06/24 13:36:47;;;;;;;2.55;1.67;;;;;;;;;;5027737;28;20045;-64
2021/06/24 13:39:33;;;;;;;1.83;1.73;;;;;;;;;;5028218;28;20044;-64
2021/06/24 13:41:59;;;;;;;2.70;1.45;;;;;;;;;;5027371;28;20049;-67
2021/06/24 13:44:24;;;;;;;1.90;1.80;;;;;;;;;;5028326;28;20017;-64
2021/06/24 13:46:51;;;;;;;2.75;1.58;;;;;;;;;;5027705;28;20609;-65
2021/06/24 13:49:17;;;;;;;2.00;1.90;;;;;;;;;;5027808;28;20029;-64
2021/06/24 13:51:47;;;;;;;2.75;1.50;;;;;;;;;;5026375;28;20041;-64
2021/06/24 13:54:15;;;;;;;1.95;1.30;;;;;;;;;;5026865;28;20459;-64
2021/06/24 13:56:40;;;;;;;1.60;1.50;;;;;;;;;;5039662;28;20087;-64
2021/06/24 13:59:06;;;;;;;1.63;1.52;;;;;;;;;;5029922;28;20018;-64
2021/06/24 14:01:32;;;;;;;1.77;1.60;;;;;;;;;;5026901;28;20041;-64
2021/06/24 14:03:58;;;;;;;1.27;1.17;;;;;;;;;;5026969;28;20041;-64
2021/06/24 14:06:25;;;;;;;1.63;1.40;;;;;;;;;;5027672;28;20061;-64
2021/06/24 14:08:51;;;;;;;1.80;1.25;;;;;;;;;;5027721;28;20486;-64
2021/06/24 14:11:16;;;;;;;1.48;1.38;;;;;;;;;;5032574;28;20097;-66
2021/06/24 14:13:45;;;;;;;1.40;1.10;;;;;;;;;;5026968;28;20476;-64
2021/06/24 14:16:15;;;;;;;1.40;1.30;;;;;;;;;;5026854;28;20458;-64
2021/06/24 14:18:41;;;;;;;1.58;1.38;;;;;;;;;;5026081;28;20455;-65
2021/06/24 14:21:10;;;;;;;1.52;1.10;;;;;;;;;;5026682;28;20140;-65
2021/06/24 14:23:35;;;;;;;2.60;1.20;;;;;;;;;;5027134;28;20028;-64
2021/06/24 14:26:02;;;;;;;2.83;1.53;;;;;;;;;;5031548;28;20026;-65
2021/06/24 14:28:27;;;;;;;1.48;1.38;;;;;;;;;;5027446;28;20362;-65
2021/06/24 14:30:52;;;;;;;1.27;1.10;;;;;;;;;;5027591;28;20480;-65
2021/06/24 14:33:18;;;;;;;1.20;1.20;;;;;;;;;;5027133;28;20051;-65
2021/06/24 14:35:43;;;;;;;1.70;1.60;;;;;;;;;;5023792;28;20028;-67
2021/06/24 14:38:08;;;;;;;1.60;1.50;;;;;;;;;;5029453;28;20026;-65
2021/06/24 14:40:33;;;;;;;1.73;1.55;;;;;;;;;;5036114;28;20064;-65
2021/06/24 14:42:59;;;;;;;1.57;1.47;;;;;;;;;;5027281;28;20041;-65
2021/06/24 14:45:24;;;;;;;1.70;1.60;;;;;;;;;;5027701;28;20284;-66
2021/06/24 14:47:49;;;;;;;2.55;1.70;;;;;;;;;;5026387;28;20021;-65
2021/06/24 14:50:15;;;;;;;1.47;1.37;;;;;;;;;;5032836;28;20041;-65